sensor_id;sensor_type;location;lat;lon;timestamp;P1;durP1;ratioP1;P2;durP2;ratioP2
35877;SDS011;21982;49.804;24.072;2023-05-10T00:00:34;4.68;;;2.55;;
35877;SDS011;21982;49.804;24.072;2023-05-10T00:02:59;3.97;;;2.30;;
35877;SDS011;21982;49.804;24.072;2023-05-10T00:05:25;8.75;;;2.92;;
35877;SDS011;21982;49.804;24.072;2023-05-10T00:07:50;10.27;;;2.75;;
35877;SDS011;21982;49.804;24.072;2023-05-10T00:10:15;7.55;;;2.80;;
35877;SDS011;21982;49.804;24.072;2023-05-10T00:12:42;5.85;;;2.80;;
35877;SDS011;21982;49.804;24.072;2023-05-10T00:15:08;6.60;;;2.60;;
35877;SDS011;21982;49.804;24.072;2023-05-10T00:17:33;9.65;;;2.90;;
35877;SDS011;21982;49.804;24.072;2023-05-10T00:19:59;5.43;;;3.17;;
35877;SDS011;21982;49.804;24.072;2023-05-10T00:22:25;9.30;;;2.85;;
35877;SDS011;21982;49.804;24.072;2023-05-10T00:24:50;5.15;;;2.88;;
35877;SDS011;21982;49.804;24.072;2023-05-10T00:27:17;7.00;;;3.15;;
35877;SDS011;21982;49.804;24.072;2023-05-10T00:29:46;7.47;;;3.40;;
35877;SDS011;21982;49.804;24.072;2023-05-10T00:32:12;6.10;;;2.50;;
35877;SDS011;21982;49.804;24.072;2023-05-10T00:34:39;6.80;;;2.65;;
35877;SDS011;21982;49.804;24.072;2023-05-10T00:37:10;11.48;;;3.08;;
35877;SDS011;21982;49.804;24.072;2023-05-10T00:39:37;4.57;;;2.30;;
35877;SDS011;21982;49.804;24.072;2023-05-10T00:42:03;10.07;;;3.10;;
35877;SDS011;21982;49.804;24.072;2023-05-10T00:44:29;8.30;;;2.80;;
35877;SDS011;21982;49.804;24.072;2023-05-10T00:46:55;6.60;;;2.63;;
35877;SDS011;21982;49.804;24.072;2023-05-10T00:49:21;6.68;;;3.10;;
35877;SDS011;21982;49.804;24.072;2023-05-10T00:51:47;15.75;;;4.35;;
35877;SDS011;21982;49.804;24.072;2023-05-10T00:54:14;9.25;;;3.13;;
35877;SDS011;21982;49.804;24.072;2023-05-10T00:56:40;8.18;;;2.70;;
35877;SDS011;21982;49.804;24.072;2023-05-10T00:59:13;6.82;;;3.00;;
35877;SDS011;21982;49.804;24.072;2023-05-10T01:01:43;5.07;;;2.78;;
35877;SDS011;21982;49.804;24.072;2023-05-10T01:04:13;7.93;;;3.15;;
35877;SDS011;21982;49.804;24.072;2023-05-10T01:06:39;4.93;;;2.22;;
35877;SDS011;21982;49.804;24.072;2023-05-10T01:09:07;7.28;;;2.92;;
35877;SDS011;21982;49.804;24.072;2023-05-10T01:11:34;6.40;;;3.72;;
35877;SDS011;21982;49.804;24.072;2023-05-10T01:14:01;9.32;;;2.90;;
35877;SDS011;21982;49.804;24.072;2023-05-10T01:16:27;5.93;;;3.95;;
35877;SDS011;21982;49.804;24.072;2023-05-10T01:18:58;8.55;;;3.28;;
35877;SDS011;21982;49.804;24.072;2023-05-10T01:21:36;9.02;;;3.80;;
35877;SDS011;21982;49.804;24.072;2023-05-10T01:27:12;10.75;;;4.07;;
35877;SDS011;21982;49.804;24.072;2023-05-10T01:37:47;8.52;;;3.30;;
35877;SDS011;21982;49.804;24.072;2023-05-10T01:40:26;7.53;;;3.97;;
35877;SDS011;21982;49.804;24.072;2023-05-10T01:43:00;8.57;;;5.10;;
35877;SDS011;21982;49.804;24.072;2023-05-10T01:45:32;7.68;;;4.03;;
35877;SDS011;21982;49.804;24.072;2023-05-10T01:48:10;8.60;;;4.05;;
35877;SDS011;21982;49.804;24.072;2023-05-10T01:50:38;11.13;;;5.18;;
35877;SDS011;21982;49.804;24.072;2023-05-10T01:53:08;11.07;;;4.30;;
35877;SDS011;21982;49.804;24.072;2023-05-10T01:55:39;11.35;;;3.78;;
35877;SDS011;21982;49.804;24.072;2023-05-10T01:58:12;8.38;;;3.15;;
35877;SDS011;21982;49.804;24.072;2023-05-10T02:00:40;7.93;;;3.13;;
35877;SDS011;21982;49.804;24.072;2023-05-10T02:03:09;7.25;;;3.35;;
35877;SDS011;21982;49.804;24.072;2023-05-10T02:05:36;16.33;;;7.95;;
35877;SDS011;21982;49.804;24.072;2023-05-10T02:08:02;18.25;;;8.68;;
35877;SDS011;21982;49.804;24.072;2023-05-10T02:10:32;13.90;;;5.50;;
35877;SDS011;21982;49.804;24.072;2023-05-10T02:12:59;10.85;;;4.35;;
35877;SDS011;21982;49.804;24.072;2023-05-10T02:15:27;8.63;;;4.53;;
35877;SDS011;21982;49.804;24.072;2023-05-10T02:17:55;8.98;;;5.10;;
35877;SDS011;21982;49.804;24.072;2023-05-10T02:20:21;12.18;;;5.13;;
35877;SDS011;21982;49.804;24.072;2023-05-10T02:22:49;10.25;;;5.35;;
35877;SDS011;21982;49.804;24.072;2023-05-10T02:25:17;21.48;;;9.02;;
35877;SDS011;21982;49.804;24.072;2023-05-10T02:27:46;10.45;;;5.47;;
35877;SDS011;21982;49.804;24.072;2023-05-10T02:30:13;15.00;;;4.97;;
35877;SDS011;21982;49.804;24.072;2023-05-10T02:32:39;13.23;;;6.28;;
35877;SDS011;21982;49.804;24.072;2023-05-10T02:35:06;9.25;;;4.10;;
35877;SDS011;21982;49.804;24.072;2023-05-10T02:37:33;9.73;;;4.20;;
35877;SDS011;21982;49.804;24.072;2023-05-10T02:40:00;11.32;;;3.28;;
35877;SDS011;21982;49.804;24.072;2023-05-10T02:42:29;10.20;;;3.97;;
35877;SDS011;21982;49.804;24.072;2023-05-10T02:44:59;10.60;;;4.28;;
35877;SDS011;21982;49.804;24.072;2023-05-10T02:47:27;10.55;;;3.53;;
35877;SDS011;21982;49.804;24.072;2023-05-10T02:49:53;12.45;;;3.95;;
35877;SDS011;21982;49.804;24.072;2023-05-10T02:52:21;9.52;;;3.65;;
35877;SDS011;21982;49.804;24.072;2023-05-10T02:54:55;7.32;;;2.80;;
35877;SDS011;21982;49.804;24.072;2023-05-10T02:57:28;7.53;;;3.08;;
35877;SDS011;21982;49.804;24.072;2023-05-10T02:59:58;12.98;;;3.58;;
35877;SDS011;21982;49.804;24.072;2023-05-10T03:02:25;9.18;;;2.58;;
35877;SDS011;21982;49.804;24.072;2023-05-10T03:04:51;9.93;;;4.00;;
35877;SDS011;21982;49.804;24.072;2023-05-10T03:07:16;8.93;;;3.78;;
35877;SDS011;21982;49.804;24.072;2023-05-10T03:09:44;13.55;;;4.15;;
35877;SDS011;21982;49.804;24.072;2023-05-10T03:12:11;8.85;;;3.55;;
35877;SDS011;21982;49.804;24.072;2023-05-10T03:14:47;6.43;;;3.55;;
35877;SDS011;21982;49.804;24.072;2023-05-10T03:22:34;7.97;;;3.75;;
35877;SDS011;21982;49.804;24.072;2023-05-10T03:25:04;12.93;;;3.45;;
35877;SDS011;21982;49.804;24.072;2023-05-10T03:27:31;17.02;;;5.25;;
35877;SDS011;21982;49.804;24.072;2023-05-10T03:29:58;9.13;;;4.13;;
35877;SDS011;21982;49.804;24.072;2023-05-10T03:32:25;13.10;;;4.30;;
35877;SDS011;21982;49.804;24.072;2023-05-10T03:34:52;11.13;;;3.30;;
35877;SDS011;21982;49.804;24.072;2023-05-10T03:37:17;13.13;;;3.85;;
35877;SDS011;21982;49.804;24.072;2023-05-10T03:39:42;12.60;;;4.30;;
35877;SDS011;21982;49.804;24.072;2023-05-10T03:42:09;11.02;;;3.15;;
35877;SDS011;21982;49.804;24.072;2023-05-10T03:44:36;8.10;;;3.55;;
35877;SDS011;21982;49.804;24.072;2023-05-10T03:47:03;7.00;;;3.45;;
35877;SDS011;21982;49.804;24.072;2023-05-10T03:49:28;10.10;;;3.47;;
35877;SDS011;21982;49.804;24.072;2023-05-10T03:51:55;8.55;;;3.75;;
35877;SDS011;21982;49.804;24.072;2023-05-10T03:54:20;7.25;;;3.25;;
35877;SDS011;21982;49.804;24.072;2023-05-10T03:56:46;11.35;;;3.60;;
35877;SDS011;21982;49.804;24.072;2023-05-10T03:59:14;8.80;;;3.50;;
35877;SDS011;21982;49.804;24.072;2023-05-10T04:01:39;7.13;;;3.78;;
35877;SDS011;21982;49.804;24.072;2023-05-10T04:04:04;9.02;;;4.05;;
35877;SDS011;21982;49.804;24.072;2023-05-10T04:06:30;9.73;;;3.65;;
35877;SDS011;21982;49.804;24.072;2023-05-10T04:08:55;6.90;;;2.88;;
35877;SDS011;21982;49.804;24.072;2023-05-10T04:11:21;6.22;;;3.63;;
35877;SDS011;21982;49.804;24.072;2023-05-10T04:13:49;9.40;;;3.25;;
35877;SDS011;21982;49.804;24.072;2023-05-10T04:16:15;8.43;;;3.20;;
35877;SDS011;21982;49.804;24.072;2023-05-10T04:18:40;5.32;;;3.08;;
35877;SDS011;21982;49.804;24.072;2023-05-10T04:21:16;8.25;;;3.65;;
35877;SDS011;21982;49.804;24.072;2023-05-10T04:23:41;9.15;;;3.33;;
35877;SDS011;21982;49.804;24.072;2023-05-10T04:26:06;8.50;;;3.03;;
35877;SDS011;21982;49.804;24.072;2023-05-10T04:28:32;8.40;;;3.03;;
35877;SDS011;21982;49.804;24.072;2023-05-10T04:31:03;6.15;;;3.13;;
35877;SDS011;21982;49.804;24.072;2023-05-10T04:33:29;8.93;;;3.05;;
35877;SDS011;21982;49.804;24.072;2023-05-10T04:35:55;7.35;;;3.20;;
35877;SDS011;21982;49.804;24.072;2023-05-10T04:38:21;5.40;;;2.75;;
35877;SDS011;21982;49.804;24.072;2023-05-10T04:40:46;6.20;;;3.58;;
35877;SDS011;21982;49.804;24.072;2023-05-10T04:43:12;7.85;;;2.90;;
35877;SDS011;21982;49.804;24.072;2023-05-10T04:45:37;6.60;;;2.70;;
35877;SDS011;21982;49.804;24.072;2023-05-10T04:48:02;9.60;;;4.20;;
35877;SDS011;21982;49.804;24.072;2023-05-10T04:50:28;9.30;;;3.63;;
35877;SDS011;21982;49.804;24.072;2023-05-10T04:52:53;7.68;;;3.10;;
35877;SDS011;21982;49.804;24.072;2023-05-10T04:55:20;8.38;;;3.05;;
35877;SDS011;21982;49.804;24.072;2023-05-10T04:57:45;8.18;;;3.03;;
35877;SDS011;21982;49.804;24.072;2023-05-10T05:00:10;6.35;;;2.83;;
35877;SDS011;21982;49.804;24.072;2023-05-10T05:02:37;5.75;;;2.40;;
35877;SDS011;21982;49.804;24.072;2023-05-10T05:05:02;5.50;;;3.08;;
35877;SDS011;21982;49.804;24.072;2023-05-10T05:07:28;7.78;;;3.42;;
35877;SDS011;21982;49.804;24.072;2023-05-10T05:09:53;10.73;;;3.60;;
35877;SDS011;21982;49.804;24.072;2023-05-10T05:12:19;7.05;;;3.42;;
35877;SDS011;21982;49.804;24.072;2023-05-10T05:14:44;8.15;;;3.30;;
35877;SDS011;21982;49.804;24.072;2023-05-10T05:17:09;4.50;;;2.50;;
35877;SDS011;21982;49.804;24.072;2023-05-10T05:19:35;5.45;;;2.78;;
35877;SDS011;21982;49.804;24.072;2023-05-10T05:22:01;7.70;;;2.80;;
35877;SDS011;21982;49.804;24.072;2023-05-10T05:24:28;8.45;;;3.35;;
35877;SDS011;21982;49.804;24.072;2023-05-10T05:26:53;5.55;;;3.00;;
35877;SDS011;21982;49.804;24.072;2023-05-10T05:29:18;6.40;;;2.90;;
35877;SDS011;21982;49.804;24.072;2023-05-10T05:31:44;6.18;;;2.60;;
35877;SDS011;21982;49.804;24.072;2023-05-10T05:34:09;10.05;;;2.78;;
35877;SDS011;21982;49.804;24.072;2023-05-10T05:36:38;10.68;;;3.95;;
35877;SDS011;21982;49.804;24.072;2023-05-10T05:39:03;8.85;;;3.00;;
35877;SDS011;21982;49.804;24.072;2023-05-10T05:41:30;7.38;;;2.97;;
35877;SDS011;21982;49.804;24.072;2023-05-10T05:43:55;10.38;;;3.13;;
35877;SDS011;21982;49.804;24.072;2023-05-10T05:46:20;9.85;;;2.33;;
35877;SDS011;21982;49.804;24.072;2023-05-10T05:48:46;6.45;;;2.63;;
35877;SDS011;21982;49.804;24.072;2023-05-10T05:51:11;6.47;;;3.03;;
35877;SDS011;21982;49.804;24.072;2023-05-10T05:53:36;7.53;;;2.92;;
35877;SDS011;21982;49.804;24.072;2023-05-10T05:56:02;6.70;;;3.00;;
35877;SDS011;21982;49.804;24.072;2023-05-10T05:58:28;7.40;;;3.10;;
35877;SDS011;21982;49.804;24.072;2023-05-10T06:00:55;8.88;;;3.00;;
35877;SDS011;21982;49.804;24.072;2023-05-10T06:03:21;5.93;;;3.15;;
35877;SDS011;21982;49.804;24.072;2023-05-10T06:05:46;5.43;;;2.88;;
35877;SDS011;21982;49.804;24.072;2023-05-10T06:08:12;6.10;;;3.00;;
35877;SDS011;21982;49.804;24.072;2023-05-10T06:10:38;6.90;;;3.10;;
35877;SDS011;21982;49.804;24.072;2023-05-10T06:13:06;7.85;;;3.63;;
35877;SDS011;21982;49.804;24.072;2023-05-10T06:15:32;6.72;;;3.33;;
35877;SDS011;21982;49.804;24.072;2023-05-10T06:17:57;6.38;;;2.75;;
35877;SDS011;21982;49.804;24.072;2023-05-10T06:20:23;9.05;;;3.38;;
35877;SDS011;21982;49.804;24.072;2023-05-10T06:22:50;7.68;;;4.05;;
35877;SDS011;21982;49.804;24.072;2023-05-10T06:25:16;9.35;;;3.17;;
35877;SDS011;21982;49.804;24.072;2023-05-10T06:27:43;6.65;;;2.53;;
35877;SDS011;21982;49.804;24.072;2023-05-10T06:30:08;5.55;;;2.55;;
35877;SDS011;21982;49.804;24.072;2023-05-10T06:32:34;12.02;;;3.00;;
35877;SDS011;21982;49.804;24.072;2023-05-10T06:34:59;7.78;;;2.30;;
35877;SDS011;21982;49.804;24.072;2023-05-10T06:37:25;5.57;;;2.50;;
35877;SDS011;21982;49.804;24.072;2023-05-10T06:39:50;5.05;;;2.33;;
35877;SDS011;21982;49.804;24.072;2023-05-10T06:42:16;7.20;;;2.22;;
35877;SDS011;21982;49.804;24.072;2023-05-10T06:44:41;10.65;;;2.35;;
35877;SDS011;21982;49.804;24.072;2023-05-10T06:47:06;4.97;;;2.08;;
35877;SDS011;21982;49.804;24.072;2023-05-10T06:49:32;6.50;;;2.40;;
35877;SDS011;21982;49.804;24.072;2023-05-10T06:51:57;11.48;;;2.33;;
35877;SDS011;21982;49.804;24.072;2023-05-10T06:54:22;5.07;;;1.67;;
35877;SDS011;21982;49.804;24.072;2023-05-10T06:56:48;4.55;;;1.42;;
35877;SDS011;21982;49.804;24.072;2023-05-10T06:59:13;3.55;;;1.70;;
35877;SDS011;21982;49.804;24.072;2023-05-10T07:01:41;7.40;;;2.28;;
35877;SDS011;21982;49.804;24.072;2023-05-10T07:04:08;8.75;;;1.90;;
35877;SDS011;21982;49.804;24.072;2023-05-10T07:06:33;13.00;;;2.65;;
35877;SDS011;21982;49.804;24.072;2023-05-10T07:08:59;5.82;;;1.88;;
35877;SDS011;21982;49.804;24.072;2023-05-10T07:11:24;3.35;;;1.67;;
35877;SDS011;21982;49.804;24.072;2023-05-10T07:13:50;22.42;;;2.88;;
35877;SDS011;21982;49.804;24.072;2023-05-10T07:16:15;11.57;;;1.92;;
35877;SDS011;21982;49.804;24.072;2023-05-10T07:18:41;5.97;;;1.77;;
35877;SDS011;21982;49.804;24.072;2023-05-10T07:21:06;11.68;;;1.90;;
35877;SDS011;21982;49.804;24.072;2023-05-10T07:23:31;4.15;;;1.70;;
35877;SDS011;21982;49.804;24.072;2023-05-10T07:25:57;5.85;;;1.88;;
35877;SDS011;21982;49.804;24.072;2023-05-10T07:28:23;5.60;;;1.98;;
35877;SDS011;21982;49.804;24.072;2023-05-10T07:30:49;9.02;;;1.80;;
35877;SDS011;21982;49.804;24.072;2023-05-10T07:33:15;3.72;;;1.65;;
35877;SDS011;21982;49.804;24.072;2023-05-10T07:35:40;13.30;;;2.13;;
35877;SDS011;21982;49.804;24.072;2023-05-10T07:38:06;5.80;;;1.80;;
35877;SDS011;21982;49.804;24.072;2023-05-10T07:40:31;10.80;;;2.60;;
35877;SDS011;21982;49.804;24.072;2023-05-10T07:42:57;4.60;;;1.48;;
35877;SDS011;21982;49.804;24.072;2023-05-10T07:45:23;4.68;;;1.98;;
35877;SDS011;21982;49.804;24.072;2023-05-10T07:47:48;9.05;;;1.80;;
35877;SDS011;21982;49.804;24.072;2023-05-10T07:50:14;7.32;;;2.10;;
35877;SDS011;21982;49.804;24.072;2023-05-10T07:52:39;3.38;;;1.60;;
35877;SDS011;21982;49.804;24.072;2023-05-10T07:55:05;5.25;;;1.67;;
35877;SDS011;21982;49.804;24.072;2023-05-10T07:57:32;3.25;;;1.55;;
35877;SDS011;21982;49.804;24.072;2023-05-10T07:59:58;6.53;;;1.80;;
35877;SDS011;21982;49.804;24.072;2023-05-10T08:02:24;4.80;;;1.70;;
35877;SDS011;21982;49.804;24.072;2023-05-10T08:04:49;2.00;;;1.08;;
35877;SDS011;21982;49.804;24.072;2023-05-10T08:07:14;2.92;;;1.23;;
35877;SDS011;21982;49.804;24.072;2023-05-10T08:09:40;20.15;;;3.92;;
35877;SDS011;21982;49.804;24.072;2023-05-10T08:12:05;4.07;;;1.73;;
35877;SDS011;21982;49.804;24.072;2023-05-10T08:14:31;5.25;;;1.75;;
35877;SDS011;21982;49.804;24.072;2023-05-10T08:16:56;3.05;;;1.38;;
35877;SDS011;21982;49.804;24.072;2023-05-10T08:19:22;3.70;;;1.52;;
35877;SDS011;21982;49.804;24.072;2023-05-10T08:21:47;2.85;;;1.40;;
35877;SDS011;21982;49.804;24.072;2023-05-10T08:24:13;7.40;;;1.63;;
35877;SDS011;21982;49.804;24.072;2023-05-10T08:26:39;4.10;;;1.75;;
35877;SDS011;21982;49.804;24.072;2023-05-10T08:29:05;2.72;;;1.10;;
35877;SDS011;21982;49.804;24.072;2023-05-10T08:31:30;3.55;;;1.75;;
35877;SDS011;21982;49.804;24.072;2023-05-10T08:33:55;5.13;;;1.13;;
35877;SDS011;21982;49.804;24.072;2023-05-10T08:36:21;6.88;;;2.45;;
35877;SDS011;21982;49.804;24.072;2023-05-10T08:38:50;4.85;;;1.50;;
35877;SDS011;21982;49.804;24.072;2023-05-10T08:41:22;5.40;;;1.90;;
35877;SDS011;21982;49.804;24.072;2023-05-10T08:43:50;5.90;;;1.75;;
35877;SDS011;21982;49.804;24.072;2023-05-10T08:46:17;5.25;;;1.60;;
35877;SDS011;21982;49.804;24.072;2023-05-10T08:48:44;6.60;;;1.50;;
35877;SDS011;21982;49.804;24.072;2023-05-10T08:51:11;4.30;;;1.88;;
35877;SDS011;21982;49.804;24.072;2023-05-10T08:53:38;4.38;;;1.35;;
35877;SDS011;21982;49.804;24.072;2023-05-10T08:56:04;8.40;;;1.80;;
35877;SDS011;21982;49.804;24.072;2023-05-10T08:58:30;6.50;;;1.60;;
35877;SDS011;21982;49.804;24.072;2023-05-10T09:00:56;2.83;;;1.65;;
35877;SDS011;21982;49.804;24.072;2023-05-10T09:03:22;7.90;;;2.22;;
35877;SDS011;21982;49.804;24.072;2023-05-10T09:05:48;7.20;;;2.25;;
35877;SDS011;21982;49.804;24.072;2023-05-10T09:08:14;5.13;;;1.50;;
35877;SDS011;21982;49.804;24.072;2023-05-10T09:10:41;6.30;;;1.88;;
35877;SDS011;21982;49.804;24.072;2023-05-10T09:13:09;5.60;;;1.90;;
35877;SDS011;21982;49.804;24.072;2023-05-10T09:15:36;2.85;;;1.40;;
35877;SDS011;21982;49.804;24.072;2023-05-10T09:18:01;3.22;;;1.50;;
35877;SDS011;21982;49.804;24.072;2023-05-10T09:20:27;5.97;;;2.30;;
35877;SDS011;21982;49.804;24.072;2023-05-10T09:22:52;5.88;;;2.08;;
35877;SDS011;21982;49.804;24.072;2023-05-10T09:25:18;1.45;;;1.27;;
35877;SDS011;21982;49.804;24.072;2023-05-10T09:27:45;10.10;;;2.00;;
35877;SDS011;21982;49.804;24.072;2023-05-10T09:30:29;6.10;;;2.15;;
35877;SDS011;21982;49.804;24.072;2023-05-10T09:32:56;3.28;;;1.55;;
35877;SDS011;21982;49.804;24.072;2023-05-10T09:35:23;3.35;;;1.58;;
35877;SDS011;21982;49.804;24.072;2023-05-10T09:37:51;3.95;;;1.27;;
35877;SDS011;21982;49.804;24.072;2023-05-10T09:40:25;13.73;;;4.93;;
35877;SDS011;21982;49.804;24.072;2023-05-10T09:42:53;6.95;;;2.75;;
35877;SDS011;21982;49.804;24.072;2023-05-10T09:45:31;8.15;;;2.53;;
35877;SDS011;21982;49.804;24.072;2023-05-10T09:47:57;5.85;;;1.75;;
35877;SDS011;21982;49.804;24.072;2023-05-10T09:50:24;4.43;;;1.80;;
35877;SDS011;21982;49.804;24.072;2023-05-10T09:52:50;10.30;;;2.50;;
35877;SDS011;21982;49.804;24.072;2023-05-10T09:55:19;8.48;;;2.05;;
35877;SDS011;21982;49.804;24.072;2023-05-10T09:57:46;6.78;;;2.45;;
35877;SDS011;21982;49.804;24.072;2023-05-10T10:00:22;8.10;;;3.58;;
35877;SDS011;21982;49.804;24.072;2023-05-10T10:02:56;10.43;;;2.10;;
35877;SDS011;21982;49.804;24.072;2023-05-10T10:05:29;3.83;;;1.38;;
35877;SDS011;21982;49.804;24.072;2023-05-10T10:07:55;5.20;;;1.73;;
35877;SDS011;21982;49.804;24.072;2023-05-10T10:10:22;3.65;;;1.60;;
35877;SDS011;21982;49.804;24.072;2023-05-10T10:12:48;6.38;;;2.25;;
35877;SDS011;21982;49.804;24.072;2023-05-10T10:15:13;6.75;;;2.83;;
35877;SDS011;21982;49.804;24.072;2023-05-10T10:17:39;17.65;;;3.75;;
35877;SDS011;21982;49.804;24.072;2023-05-10T10:20:08;8.10;;;1.85;;
35877;SDS011;21982;49.804;24.072;2023-05-10T10:22:33;3.20;;;1.25;;
35877;SDS011;21982;49.804;24.072;2023-05-10T10:24:59;9.95;;;3.55;;
35877;SDS011;21982;49.804;24.072;2023-05-10T10:27:32;4.18;;;1.75;;
35877;SDS011;21982;49.804;24.072;2023-05-10T10:35:42;6.55;;;2.30;;
35877;SDS011;21982;49.804;24.072;2023-05-10T10:38:10;4.38;;;2.40;;
35877;SDS011;21982;49.804;24.072;2023-05-10T10:40:37;3.72;;;1.42;;
35877;SDS011;21982;49.804;24.072;2023-05-10T10:43:21;5.85;;;2.05;;
35877;SDS011;21982;49.804;24.072;2023-05-10T10:45:56;5.00;;;1.48;;
35877;SDS011;21982;49.804;24.072;2023-05-10T10:48:50;7.68;;;1.35;;
35877;SDS011;21982;49.804;24.072;2023-05-10T10:51:36;8.88;;;1.92;;
35877;SDS011;21982;49.804;24.072;2023-05-10T10:54:09;6.82;;;3.08;;
35877;SDS011;21982;49.804;24.072;2023-05-10T10:56:35;2.88;;;1.50;;
35877;SDS011;21982;49.804;24.072;2023-05-10T10:59:00;4.13;;;1.75;;
35877;SDS011;21982;49.804;24.072;2023-05-10T11:01:26;4.97;;;1.70;;
35877;SDS011;21982;49.804;24.072;2023-05-10T11:06:29;4.63;;;1.40;;
35877;SDS011;21982;49.804;24.072;2023-05-10T11:08:56;5.40;;;2.42;;
35877;SDS011;21982;49.804;24.072;2023-05-10T11:11:22;4.13;;;1.50;;
35877;SDS011;21982;49.804;24.072;2023-05-10T11:13:48;10.45;;;1.80;;
35877;SDS011;21982;49.804;24.072;2023-05-10T11:16:20;7.72;;;2.67;;
35877;SDS011;21982;49.804;24.072;2023-05-10T11:18:51;13.32;;;1.80;;
35877;SDS011;21982;49.804;24.072;2023-05-10T11:21:23;4.38;;;2.15;;
35877;SDS011;21982;49.804;24.072;2023-05-10T11:26:16;11.85;;;2.53;;
35877;SDS011;21982;49.804;24.072;2023-05-10T11:28:42;3.33;;;1.90;;
35877;SDS011;21982;49.804;24.072;2023-05-10T11:31:08;7.78;;;2.65;;
35877;SDS011;21982;49.804;24.072;2023-05-10T11:33:51;9.05;;;1.75;;
35877;SDS011;21982;49.804;24.072;2023-05-10T11:36:19;3.40;;;1.33;;
35877;SDS011;21982;49.804;24.072;2023-05-10T11:38:52;5.38;;;1.40;;
35877;SDS011;21982;49.804;24.072;2023-05-10T11:41:19;3.90;;;1.80;;
35877;SDS011;21982;49.804;24.072;2023-05-10T11:46:24;3.78;;;1.30;;
35877;SDS011;21982;49.804;24.072;2023-05-10T11:48:53;5.00;;;1.80;;
35877;SDS011;21982;49.804;24.072;2023-05-10T11:51:25;3.80;;;1.63;;
35877;SDS011;21982;49.804;24.072;2023-05-10T11:53:52;7.57;;;1.80;;
35877;SDS011;21982;49.804;24.072;2023-05-10T11:56:19;8.45;;;2.22;;
35877;SDS011;21982;49.804;24.072;2023-05-10T11:58:45;14.85;;;2.95;;
35877;SDS011;21982;49.804;24.072;2023-05-10T12:01:20;2.20;;;1.30;;
35877;SDS011;21982;49.804;24.072;2023-05-10T12:03:47;7.03;;;2.08;;
35877;SDS011;21982;49.804;24.072;2023-05-10T12:06:14;5.03;;;1.77;;
35877;SDS011;21982;49.804;24.072;2023-05-10T12:08:43;4.10;;;1.27;;
35877;SDS011;21982;49.804;24.072;2023-05-10T12:11:12;5.68;;;2.08;;
35877;SDS011;21982;49.804;24.072;2023-05-10T12:13:40;5.57;;;2.10;;
35877;SDS011;21982;49.804;24.072;2023-05-10T12:16:13;5.93;;;2.50;;
35877;SDS011;21982;49.804;24.072;2023-05-10T12:18:40;11.82;;;2.55;;
35877;SDS011;21982;49.804;24.072;2023-05-10T12:21:09;8.23;;;2.05;;
35877;SDS011;21982;49.804;24.072;2023-05-10T12:23:36;5.57;;;1.80;;
35877;SDS011;21982;49.804;24.072;2023-05-10T12:26:02;8.27;;;2.85;;
35877;SDS011;21982;49.804;24.072;2023-05-10T12:28:31;8.63;;;1.90;;
35877;SDS011;21982;49.804;24.072;2023-05-10T12:30:57;10.30;;;2.40;;
35877;SDS011;21982;49.804;24.072;2023-05-10T12:33:24;4.25;;;1.52;;
35877;SDS011;21982;49.804;24.072;2023-05-10T12:35:50;7.50;;;1.60;;
35877;SDS011;21982;49.804;24.072;2023-05-10T12:41:11;7.30;;;2.85;;
35877;SDS011;21982;49.804;24.072;2023-05-10T12:43:38;6.60;;;2.58;;
35877;SDS011;21982;49.804;24.072;2023-05-10T12:46:14;6.90;;;2.97;;
35877;SDS011;21982;49.804;24.072;2023-05-10T12:51:16;8.05;;;1.83;;
35877;SDS011;21982;49.804;24.072;2023-05-10T12:53:46;20.60;;;7.55;;
35877;SDS011;21982;49.804;24.072;2023-05-10T12:56:13;6.13;;;2.40;;
35877;SDS011;21982;49.804;24.072;2023-05-10T12:58:38;7.18;;;3.40;;
35877;SDS011;21982;49.804;24.072;2023-05-10T13:01:04;4.20;;;1.60;;
35877;SDS011;21982;49.804;24.072;2023-05-10T13:03:30;3.83;;;1.65;;
35877;SDS011;21982;49.804;24.072;2023-05-10T13:05:59;3.72;;;1.98;;
35877;SDS011;21982;49.804;24.072;2023-05-10T13:08:26;4.32;;;1.40;;
35877;SDS011;21982;49.804;24.072;2023-05-10T13:10:52;5.97;;;1.45;;
35877;SDS011;21982;49.804;24.072;2023-05-10T13:13:18;3.92;;;1.48;;
35877;SDS011;21982;49.804;24.072;2023-05-10T13:15:43;5.38;;;1.70;;
35877;SDS011;21982;49.804;24.072;2023-05-10T13:18:08;3.58;;;1.65;;
35877;SDS011;21982;49.804;24.072;2023-05-10T13:20:34;4.22;;;1.33;;
35877;SDS011;21982;49.804;24.072;2023-05-10T13:23:00;7.88;;;1.42;;
35877;SDS011;21982;49.804;24.072;2023-05-10T13:25:25;4.07;;;1.73;;
35877;SDS011;21982;49.804;24.072;2023-05-10T13:30:26;3.63;;;1.42;;
35877;SDS011;21982;49.804;24.072;2023-05-10T13:32:51;6.47;;;2.63;;
35877;SDS011;21982;49.804;24.072;2023-05-10T13:35:17;17.63;;;2.80;;
35877;SDS011;21982;49.804;24.072;2023-05-10T13:37:42;6.35;;;2.75;;
35877;SDS011;21982;49.804;24.072;2023-05-10T13:40:07;5.78;;;1.75;;
35877;SDS011;21982;49.804;24.072;2023-05-10T13:42:34;12.35;;;2.45;;
35877;SDS011;21982;49.804;24.072;2023-05-10T13:45:00;6.80;;;1.92;;
35877;SDS011;21982;49.804;24.072;2023-05-10T13:47:27;10.40;;;2.75;;
35877;SDS011;21982;49.804;24.072;2023-05-10T13:49:52;8.43;;;2.85;;
35877;SDS011;21982;49.804;24.072;2023-05-10T13:52:20;9.52;;;1.67;;
35877;SDS011;21982;49.804;24.072;2023-05-10T13:54:45;3.72;;;1.55;;
35877;SDS011;21982;49.804;24.072;2023-05-10T13:57:11;4.78;;;2.08;;
35877;SDS011;21982;49.804;24.072;2023-05-10T13:59:40;3.80;;;1.33;;
35877;SDS011;21982;49.804;24.072;2023-05-10T14:02:07;6.18;;;1.77;;
35877;SDS011;21982;49.804;24.072;2023-05-10T14:04:33;12.85;;;2.05;;
35877;SDS011;21982;49.804;24.072;2023-05-10T14:07:00;3.97;;;1.33;;
35877;SDS011;21982;49.804;24.072;2023-05-10T14:09:27;8.75;;;2.17;;
35877;SDS011;21982;49.804;24.072;2023-05-10T14:11:53;10.48;;;2.30;;
35877;SDS011;21982;49.804;24.072;2023-05-10T14:14:20;11.30;;;2.00;;
35877;SDS011;21982;49.804;24.072;2023-05-10T14:16:46;9.07;;;1.83;;
35877;SDS011;21982;49.804;24.072;2023-05-10T14:19:11;7.75;;;2.53;;
35877;SDS011;21982;49.804;24.072;2023-05-10T14:24:12;3.55;;;1.55;;
35877;SDS011;21982;49.804;24.072;2023-05-10T14:26:39;4.07;;;2.83;;
35877;SDS011;21982;49.804;24.072;2023-05-10T14:29:04;5.05;;;1.65;;
35877;SDS011;21982;49.804;24.072;2023-05-10T14:31:31;4.00;;;1.60;;
35877;SDS011;21982;49.804;24.072;2023-05-10T14:33:56;6.57;;;1.70;;
35877;SDS011;21982;49.804;24.072;2023-05-10T14:36:22;3.45;;;1.38;;
35877;SDS011;21982;49.804;24.072;2023-05-10T14:38:48;4.57;;;1.75;;
35877;SDS011;21982;49.804;24.072;2023-05-10T14:41:14;5.20;;;1.50;;
35877;SDS011;21982;49.804;24.072;2023-05-10T14:43:42;6.13;;;2.00;;
35877;SDS011;21982;49.804;24.072;2023-05-10T14:46:09;6.32;;;1.90;;
35877;SDS011;21982;49.804;24.072;2023-05-10T14:48:35;4.75;;;1.27;;
35877;SDS011;21982;49.804;24.072;2023-05-10T14:51:01;15.00;;;2.25;;
35877;SDS011;21982;49.804;24.072;2023-05-10T14:53:29;2.78;;;1.10;;
35877;SDS011;21982;49.804;24.072;2023-05-10T14:55:56;3.75;;;1.70;;
35877;SDS011;21982;49.804;24.072;2023-05-10T14:58:23;5.35;;;1.77;;
35877;SDS011;21982;49.804;24.072;2023-05-10T15:00:48;10.07;;;3.13;;
35877;SDS011;21982;49.804;24.072;2023-05-10T15:03:13;5.10;;;2.15;;
35877;SDS011;21982;49.804;24.072;2023-05-10T15:05:39;6.72;;;1.60;;
35877;SDS011;21982;49.804;24.072;2023-05-10T15:10:39;4.88;;;2.22;;
35877;SDS011;21982;49.804;24.072;2023-05-10T15:13:05;3.72;;;1.50;;